sensor_id;sensor_type;location;lat;lon;timestamp;temperature;humidity
27647;DHT22;42229;51.230;6.240;2023-11-21T00:00:41;9.70;99.90
27647;DHT22;42229;51.230;6.240;2023-11-21T00:03:07;9.70;99.90
27647;DHT22;42229;51.230;6.240;2023-11-21T00:05:33;9.70;99.90
27647;DHT22;42229;51.230;6.240;2023-11-21T00:08:01;9.80;99.90
27647;DHT22;42229;51.230;6.240;2023-11-21T00:10:27;9.80;99.90
27647;DHT22;42229;51.230;6.240;2023-11-21T00:12:54;9.80;99.90
27647;DHT22;42229;51.230;6.240;2023-11-21T00:15:20;9.90;99.90
27647;DHT22;42229;51.230;6.240;2023-11-21T00:17:47;9.90;99.90
27647;DHT22;42229;51.230;6.240;2023-11-21T00:20:13;9.90;99.90
27647;DHT22;42229;51.230;6.240;2023-11-21T00:22:40;9.90;99.90
27647;DHT22;42229;51.230;6.240;2023-11-21T00:25:06;9.90;99.90
27647;DHT22;42229;51.230;6.240;2023-11-21T00:27:35;10.00;99.90
27647;DHT22;42229;51.230;6.240;2023-11-21T00:30:01;9.90;99.90
27647;DHT22;42229;51.230;6.240;2023-11-21T00:32:30;10.00;99.90
27647;DHT22;42229;51.230;6.240;2023-11-21T00:34:57;10.00;99.90
27647;DHT22;42229;51.230;6.240;2023-11-21T00:37:25;9.90;99.90
27647;DHT22;42229;51.230;6.240;2023-11-21T00:39:51;9.90;99.90
27647;DHT22;42229;51.230;6.240;2023-11-21T00:42:17;9.90;99.90
27647;DHT22;42229;51.230;6.240;2023-11-21T00:44:44;9.90;99.90
27647;DHT22;42229;51.230;6.240;2023-11-21T00:47:11;9.90;99.90
27647;DHT22;42229;51.230;6.240;2023-11-21T00:49:39;9.90;99.90
27647;DHT22;42229;51.230;6.240;2023-11-21T00:52:06;9.90;99.90
27647;DHT22;42229;51.230;6.240;2023-11-21T00:54:32;9.90;99.90
27647;DHT22;42229;51.230;6.240;2023-11-21T00:56:59;9.90;99.90
27647;DHT22;42229;51.230;6.240;2023-11-21T00:59:25;9.90;99.90
27647;DHT22;42229;51.230;6.240;2023-11-21T01:01:52;9.90;99.90
27647;DHT22;42229;51.230;6.240;2023-11-21T01:04:19;9.90;99.90
27647;DHT22;42229;51.230;6.240;2023-11-21T01:06:45;9.80;99.90
27647;DHT22;42229;51.230;6.240;2023-11-21T01:09:11;9.90;99.90
27647;DHT22;42229;51.230;6.240;2023-11-21T01:11:38;9.80;99.90
27647;DHT22;42229;51.230;6.240;2023-11-21T01:14:04;9.80;99.90
27647;DHT22;42229;51.230;6.240;2023-11-21T01:16:32;9.80;99.90
27647;DHT22;42229;51.230;6.240;2023-11-21T01:18:59;9.90;99.90
27647;DHT22;42229;51.230;6.240;2023-11-21T01:21:25;9.90;99.90
27647;DHT22;42229;51.230;6.240;2023-11-21T01:23:52;9.90;99.90
27647;DHT22;42229;51.230;6.240;2023-11-21T01:26:18;9.90;99.90
27647;DHT22;42229;51.230;6.240;2023-11-21T01:28:44;9.90;99.90
27647;DHT22;42229;51.230;6.240;2023-11-21T01:31:10;9.90;99.90
27647;DHT22;42229;51.230;6.240;2023-11-21T01:33:37;10.00;99.90
27647;DHT22;42229;51.230;6.240;2023-11-21T01:36:03;10.00;99.90
27647;DHT22;42229;51.230;6.240;2023-11-21T01:38:31;10.00;99.90
27647;DHT22;42229;51.230;6.240;2023-11-21T01:40:59;10.00;99.90
27647;DHT22;42229;51.230;6.240;2023-11-21T01:43:27;10.00;99.90
27647;DHT22;42229;51.230;6.240;2023-11-21T01:45:54;10.00;99.90
27647;DHT22;42229;51.230;6.240;2023-11-21T01:48:23;10.00;99.90
27647;DHT22;42229;51.230;6.240;2023-11-21T01:50:49;10.00;99.90
27647;DHT22;42229;51.230;6.240;2023-11-21T01:53:16;10.00;99.90
27647;DHT22;42229;51.230;6.240;2023-11-21T01:55:42;10.10;99.90
27647;DHT22;42229;51.230;6.240;2023-11-21T01:58:09;10.10;99.90
27647;DHT22;42229;51.230;6.240;2023-11-21T02:00:37;10.00;99.90
27647;DHT22;42229;51.230;6.240;2023-11-21T02:03:04;10.10;99.90
27647;DHT22;42229;51.230;6.240;2023-11-21T02:05:30;10.10;99.90
27647;DHT22;42229;51.230;6.240;2023-11-21T02:07:58;10.10;99.90
27647;DHT22;42229;51.230;6.240;2023-11-21T02:10:24;10.10;99.90
27647;DHT22;42229;51.230;6.240;2023-11-21T02:12:51;10.10;99.90
27647;DHT22;42229;51.230;6.240;2023-11-21T02:15:17;10.10;99.90
27647;DHT22;42229;51.230;6.240;2023-11-21T02:17:48;10.10;99.90
27647;DHT22;42229;51.230;6.240;2023-11-21T02:20:20;10.10;99.90
27647;DHT22;42229;51.230;6.240;2023-11-21T02:22:55;10.10;99.90
27647;DHT22;42229;51.230;6.240;2023-11-21T02:25:27;10.10;99.90
27647;DHT22;42229;51.230;6.240;2023-11-21T02:27:55;10.10;99.90
27647;DHT22;42229;51.230;6.240;2023-11-21T02:30:25;10.20;99.90
27647;DHT22;42229;51.230;6.240;2023-11-21T02:32:53;10.20;99.90
27647;DHT22;42229;51.230;6.240;2023-11-21T02:35:20;10.20;99.90
27647;DHT22;42229;51.230;6.240;2023-11-21T02:37:47;10.20;99.90
27647;DHT22;42229;51.230;6.240;2023-11-21T02:40:14;10.20;99.90
27647;DHT22;42229;51.230;6.240;2023-11-21T02:42:44;10.20;99.90
27647;DHT22;42229;51.230;6.240;2023-11-21T02:45:10;10.20;99.90
27647;DHT22;42229;51.230;6.240;2023-11-21T02:47:39;10.20;99.90
27647;DHT22;42229;51.230;6.240;2023-11-21T02:50:05;10.20;99.90
27647;DHT22;42229;51.230;6.240;2023-11-21T02:52:34;10.20;99.90
27647;DHT22;42229;51.230;6.240;2023-11-21T02:55:04;10.20;99.90
27647;DHT22;42229;51.230;6.240;2023-11-21T02:57:30;10.20;99.90
27647;DHT22;42229;51.230;6.240;2023-11-21T02:59:56;10.20;99.90
27647;DHT22;42229;51.230;6.240;2023-11-21T03:02:23;10.20;99.90
27647;DHT22;42229;51.230;6.240;2023-11-21T03:04:49;10.20;99.90
27647;DHT22;42229;51.230;6.240;2023-11-21T03:07:15;10.20;99.90
27647;DHT22;42229;51.230;6.240;2023-11-21T03:09:42;10.20;99.90
27647;DHT22;42229;51.230;6.240;2023-11-21T03:12:09;10.30;99.90
27647;DHT22;42229;51.230;6.240;2023-11-21T03:14:36;10.30;99.90
27647;DHT22;42229;51.230;6.240;2023-11-21T03:17:02;10.30;99.90
27647;DHT22;42229;51.230;6.240;2023-11-21T03:19:30;10.30;99.90
27647;DHT22;42229;51.230;6.240;2023-11-21T03:21:57;10.30;99.90
27647;DHT22;42229;51.230;6.240;2023-11-21T03:24:23;10.30;99.90
27647;DHT22;42229;51.230;6.240;2023-11-21T03:26:49;10.30;99.90
27647;DHT22;42229;51.230;6.240;2023-11-21T03:29:17;10.30;99.90
27647;DHT22;42229;51.230;6.240;2023-11-21T03:31:43;10.30;99.90
27647;DHT22;42229;51.230;6.240;2023-11-21T03:34:14;10.30;99.90
27647;DHT22;42229;51.230;6.240;2023-11-21T03:36:41;10.30;99.90
27647;DHT22;42229;51.230;6.240;2023-11-21T03:39:07;10.30;99.90
27647;DHT22;42229;51.230;6.240;2023-11-21T03:41:33;10.40;99.90
27647;DHT22;42229;51.230;6.240;2023-11-21T03:44:00;10.40;99.90
27647;DHT22;42229;51.230;6.240;2023-11-21T03:46:26;10.30;99.90
27647;DHT22;42229;51.230;6.240;2023-11-21T03:48:52;10.30;99.90
27647;DHT22;42229;51.230;6.240;2023-11-21T03:51:18;10.30;99.90
27647;DHT22;42229;51.230;6.240;2023-11-21T03:53:45;10.30;99.90
27647;DHT22;42229;51.230;6.240;2023-11-21T03:56:11;10.40;99.90
27647;DHT22;42229;51.230;6.240;2023-11-21T03:58:39;10.30;99.90
27647;DHT22;42229;51.230;6.240;2023-11-21T04:01:05;10.40;99.90
27647;DHT22;42229;51.230;6.240;2023-11-21T04:03:31;10.40;99.90
27647;DHT22;42229;51.230;6.240;2023-11-21T04:05:58;10.30;99.90
27647;DHT22;42229;51.230;6.240;2023-11-21T04:08:24;10.30;99.90
27647;DHT22;42229;51.230;6.240;2023-11-21T04:10:51;10.30;99.90
27647;DHT22;42229;51.230;6.240;2023-11-21T04:13:19;10.30;99.90
27647;DHT22;42229;51.230;6.240;2023-11-21T04:15:45;10.30;99.90
27647;DHT22;42229;51.230;6.240;2023-11-21T04:18:11;10.30;99.90
27647;DHT22;42229;51.230;6.240;2023-11-21T04:20:38;10.30;99.90
27647;DHT22;42229;51.230;6.240;2023-11-21T04:23:04;10.30;99.90
27647;DHT22;42229;51.230;6.240;2023-11-21T04:25:30;10.30;99.90
27647;DHT22;42229;51.230;6.240;2023-11-21T04:27:56;10.30;99.90
27647;DHT22;42229;51.230;6.240;2023-11-21T04:30:23;10.30;99.90
27647;DHT22;42229;51.230;6.240;2023-11-21T04:32:49;10.20;99.90
27647;DHT22;42229;51.230;6.240;2023-11-21T04:35:16;10.30;99.90
27647;DHT22;42229;51.230;6.240;2023-11-21T04:37:42;10.20;99.90
27647;DHT22;42229;51.230;6.240;2023-11-21T04:40:09;10.30;99.90
27647;DHT22;42229;51.230;6.240;2023-11-21T04:42:35;10.30;99.90
27647;DHT22;42229;51.230;6.240;2023-11-21T04:45:03;10.30;99.90
27647;DHT22;42229;51.230;6.240;2023-11-21T04:47:34;10.30;99.90
27647;DHT22;42229;51.230;6.240;2023-11-21T04:50:00;10.30;99.90
27647;DHT22;42229;51.230;6.240;2023-11-21T04:52:27;10.30;99.90
27647;DHT22;42229;51.230;6.240;2023-11-21T04:54:53;10.30;99.90
27647;DHT22;42229;51.230;6.240;2023-11-21T04:57:20;10.30;99.90
27647;DHT22;42229;51.230;6.240;2023-11-21T04:59:48;10.30;99.90
27647;DHT22;42229;51.230;6.240;2023-11-21T05:02:14;10.30;99.90
27647;DHT22;42229;51.230;6.240;2023-11-21T05:04:41;10.30;99.90
27647;DHT22;42229;51.230;6.240;2023-11-21T05:07:08;10.30;99.90
27647;DHT22;42229;51.230;6.240;2023-11-21T05:09:34;10.30;99.90
27647;DHT22;42229;51.230;6.240;2023-11-21T05:12:01;10.30;99.90
27647;DHT22;42229;51.230;6.240;2023-11-21T05:14:27;10.30;99.90
27647;DHT22;42229;51.230;6.240;2023-11-21T05:16:54;10.30;99.90
27647;DHT22;42229;51.230;6.240;2023-11-21T05:19:20;10.30;99.90
27647;DHT22;42229;51.230;6.240;2023-11-21T05:21:46;10.30;99.90
27647;DHT22;42229;51.230;6.240;2023-11-21T05:24:13;10.30;99.90
27647;DHT22;42229;51.230;6.240;2023-11-21T05:26:39;10.30;99.90
27647;DHT22;42229;51.230;6.240;2023-11-21T05:29:05;10.30;99.90
27647;DHT22;42229;51.230;6.240;2023-11-21T05:31:31;10.30;99.90
27647;DHT22;42229;51.230;6.240;2023-11-21T05:33:58;10.30;99.90
27647;DHT22;42229;51.230;6.240;2023-11-21T05:36:24;10.30;99.90
27647;DHT22;42229;51.230;6.240;2023-11-21T05:38:50;10.30;99.90
27647;DHT22;42229;51.230;6.240;2023-11-21T05:41:16;10.30;99.90
27647;DHT22;42229;51.230;6.240;2023-11-21T05:43:43;10.30;99.90
27647;DHT22;42229;51.230;6.240;2023-11-21T05:46:09;10.30;99.90
27647;DHT22;42229;51.230;6.240;2023-11-21T05:48:35;10.30;99.90
27647;DHT22;42229;51.230;6.240;2023-11-21T05:51:06;10.30;99.90
27647;DHT22;42229;51.230;6.240;2023-11-21T05:53:32;10.30;99.90
27647;DHT22;42229;51.230;6.240;2023-11-21T05:55:58;10.30;99.90
27647;DHT22;42229;51.230;6.240;2023-11-21T05:58:24;10.30;99.90
27647;DHT22;42229;51.230;6.240;2023-11-21T06:00:51;10.30;99.90
27647;DHT22;42229;51.230;6.240;2023-11-21T06:03:17;10.30;99.90
27647;DHT22;42229;51.230;6.240;2023-11-21T06:05:43;10.20;99.90
27647;DHT22;42229;51.230;6.240;2023-11-21T06:08:09;10.30;99.90
27647;DHT22;42229;51.230;6.240;2023-11-21T06:10:36;10.20;99.90
27647;DHT22;42229;51.230;6.240;2023-11-21T06:13:02;10.30;99.90
27647;DHT22;42229;51.230;6.240;2023-11-21T06:15:30;10.30;99.90
27647;DHT22;42229;51.230;6.240;2023-11-21T06:17:56;10.20;99.90
27647;DHT22;42229;51.230;6.240;2023-11-21T06:20:23;10.30;99.90
27647;DHT22;42229;51.230;6.240;2023-11-21T06:22:49;10.20;99.90
27647;DHT22;42229;51.230;6.240;2023-11-21T06:25:16;10.30;99.90
27647;DHT22;42229;51.230;6.240;2023-11-21T06:27:43;10.30;99.90
27647;DHT22;42229;51.230;6.240;2023-11-21T06:30:13;10.30;99.90
27647;DHT22;42229;51.230;6.240;2023-11-21T06:32:41;10.30;99.90
27647;DHT22;42229;51.230;6.240;2023-11-21T06:35:11;10.30;99.90
27647;DHT22;42229;51.230;6.240;2023-11-21T06:37:37;10.30;99.90
27647;DHT22;42229;51.230;6.240;2023-11-21T06:40:04;10.30;99.90
27647;DHT22;42229;51.230;6.240;2023-11-21T06:42:30;10.30;99.90
27647;DHT22;42229;51.230;6.240;2023-11-21T06:44:57;10.30;99.90
27647;DHT22;42229;51.230;6.240;2023-11-21T06:47:23;10.30;99.90
27647;DHT22;42229;51.230;6.240;2023-11-21T06:49:55;10.40;99.90
27647;DHT22;42229;51.230;6.240;2023-11-21T06:52:22;10.40;99.90
27647;DHT22;42229;51.230;6.240;2023-11-21T06:54:48;10.30;99.90
27647;DHT22;42229;51.230;6.240;2023-11-21T06:57:15;10.40;99.90
27647;DHT22;42229;51.230;6.240;2023-11-21T06:59:41;10.40;99.90
27647;DHT22;42229;51.230;6.240;2023-11-21T07:02:08;10.40;99.90
27647;DHT22;42229;51.230;6.240;2023-11-21T07:04:35;10.30;99.90
27647;DHT22;42229;51.230;6.240;2023-11-21T07:07:02;10.40;99.90
27647;DHT22;42229;51.230;6.240;2023-11-21T07:09:29;10.40;99.90
27647;DHT22;42229;51.230;6.240;2023-11-21T07:11:56;10.40;99.90
27647;DHT22;42229;51.230;6.240;2023-11-21T07:14:22;10.40;99.90
27647;DHT22;42229;51.230;6.240;2023-11-21T07:16:48;10.40;99.90
27647;DHT22;42229;51.230;6.240;2023-11-21T07:19:15;10.30;99.90
27647;DHT22;42229;51.230;6.240;2023-11-21T07:21:41;10.40;99.90
27647;DHT22;42229;51.230;6.240;2023-11-21T07:24:08;10.40;99.90
27647;DHT22;42229;51.230;6.240;2023-11-21T07:26:34;10.40;99.90
27647;DHT22;42229;51.230;6.240;2023-11-21T07:29:01;10.40;99.90
27647;DHT22;42229;51.230;6.240;2023-11-21T07:31:28;10.40;99.90
27647;DHT22;42229;51.230;6.240;2023-11-21T07:33:55;10.40;99.90
27647;DHT22;42229;51.230;6.240;2023-11-21T07:36:24;10.40;99.90
27647;DHT22;42229;51.230;6.240;2023-11-21T07:38:50;10.40;99.90
27647;DHT22;42229;51.230;6.240;2023-11-21T07:41:17;10.40;99.90
27647;DHT22;42229;51.230;6.240;2023-11-21T07:43:45;10.50;99.90
27647;DHT22;42229;51.230;6.240;2023-11-21T07:46:11;10.40;99.90
27647;DHT22;42229;51.230;6.240;2023-11-21T07:48:41;10.40;99.90
27647;DHT22;42229;51.230;6.240;2023-11-21T07:51:08;10.50;99.90
27647;DHT22;42229;51.230;6.240;2023-11-21T07:53:35;10.50;99.90
27647;DHT22;42229;51.230;6.240;2023-11-21T07:56:05;10.50;99.90
27647;DHT22;42229;51.230;6.240;2023-11-21T07:58:33;10.50;99.90
27647;DHT22;42229;51.230;6.240;2023-11-21T08:01:04;10.50;99.90
27647;DHT22;42229;51.230;6.240;2023-11-21T08:03:30;10.50;99.90
27647;DHT22;42229;51.230;6.240;2023-11-21T08:05:57;10.60;99.90
27647;DHT22;42229;51.230;6.240;2023-11-21T08:08:24;10.60;99.90
27647;DHT22;42229;51.230;6.240;2023-11-21T08:10:50;10.60;99.90
27647;DHT22;42229;51.230;6.240;2023-11-21T08:13:26;10.60;99.90
27647;DHT22;42229;51.230;6.240;2023-11-21T08:15:57;10.70;99.90
27647;DHT22;42229;51.230;6.240;2023-11-21T08:18:31;10.70;99.90
27647;DHT22;42229;51.230;6.240;2023-11-21T08:20:57;10.70;99.90
27647;DHT22;42229;51.230;6.240;2023-11-21T08:23:23;10.70;99.90
27647;DHT22;42229;51.230;6.240;2023-11-21T08:25:52;10.70;99.90
27647;DHT22;42229;51.230;6.240;2023-11-21T08:28:19;10.80;99.90
27647;DHT22;42229;51.230;6.240;2023-11-21T08:30:46;10.80;99.90
27647;DHT22;42229;51.230;6.240;2023-11-21T08:33:13;10.80;99.90
27647;DHT22;42229;51.230;6.240;2023-11-21T08:35:39;10.90;99.90
27647;DHT22;42229;51.230;6.240;2023-11-21T08:38:05;10.90;99.90
27647;DHT22;42229;51.230;6.240;2023-11-21T08:40:31;10.90;99.90
27647;DHT22;42229;51.230;6.240;2023-11-21T08:42:57;10.90;99.90
27647;DHT22;42229;51.230;6.240;2023-11-21T08:45:27;11.00;99.90
27647;DHT22;42229;51.230;6.240;2023-11-21T08:47:53;11.00;99.90
27647;DHT22;42229;51.230;6.240;2023-11-21T08:50:19;11.00;99.90
27647;DHT22;42229;51.230;6.240;2023-11-21T08:52:46;11.00;99.90
27647;DHT22;42229;51.230;6.240;2023-11-21T08:55:12;11.00;99.90
27647;DHT22;42229;51.230;6.240;2023-11-21T08:57:38;11.10;99.90
27647;DHT22;42229;51.230;6.240;2023-11-21T09:00:07;11.10;99.90
27647;DHT22;42229;51.230;6.240;2023-11-21T09:02:37;11.10;99.90
27647;DHT22;42229;51.230;6.240;2023-11-21T09:05:07;11.20;99.90
27647;DHT22;42229;51.230;6.240;2023-11-21T09:07:35;11.20;99.90
27647;DHT22;42229;51.230;6.240;2023-11-21T09:10:05;11.20;99.90
27647;DHT22;42229;51.230;6.240;2023-11-21T09:12:35;11.30;99.90
27647;DHT22;42229;51.230;6.240;2023-11-21T09:15:03;11.30;99.90
27647;DHT22;42229;51.230;6.240;2023-11-21T09:17:33;11.40;99.90
27647;DHT22;42229;51.230;6.240;2023-11-21T09:20:02;11.40;99.90
27647;DHT22;42229;51.230;6.240;2023-11-21T09:22:31;11.40;99.90
27647;DHT22;42229;51.230;6.240;2023-11-21T09:24:58;11.40;99.90
27647;DHT22;42229;51.230;6.240;2023-11-21T09:27:24;11.50;99.90
27647;DHT22;42229;51.230;6.240;2023-11-21T09:29:51;11.50;99.90
27647;DHT22;42229;51.230;6.240;2023-11-21T09:32:19;11.60;99.90
27647;DHT22;42229;51.230;6.240;2023-11-21T09:34:48;11.60;99.90
27647;DHT22;42229;51.230;6.240;2023-11-21T09:37:14;11.60;99.90
27647;DHT22;42229;51.230;6.240;2023-11-21T09:39:40;11.60;99.90
27647;DHT22;42229;51.230;6.240;2023-11-21T09:42:11;11.70;99.90
27647;DHT22;42229;51.230;6.240;2023-11-21T09:44:50;11.70;99.90
27647;DHT22;42229;51.230;6.240;2023-11-21T09:47:22;11.70;99.90
27647;DHT22;42229;51.230;6.240;2023-11-21T09:49:49;11.70;99.90
27647;DHT22;42229;51.230;6.240;2023-11-21T09:52:22;11.80;99.90
27647;DHT22;42229;51.230;6.240;2023-11-21T09:54:51;11.80;99.90
27647;DHT22;42229;51.230;6.240;2023-11-21T09:57:19;11.80;99.90
27647;DHT22;42229;51.230;6.240;2023-11-21T09:59:48;11.80;99.90
27647;DHT22;42229;51.230;6.240;2023-11-21T10:02:17;11.80;99.90
27647;DHT22;42229;51.230;6.240;2023-11-21T10:04:45;11.80;99.90
27647;DHT22;42229;51.230;6.240;2023-11-21T10:07:12;11.80;99.90
27647;DHT22;42229;51.230;6.240;2023-11-21T10:09:41;11.80;99.90
27647;DHT22;42229;51.230;6.240;2023-11-21T10:12:07;11.80;99.90
27647;DHT22;42229;51.230;6.240;2023-11-21T10:14:36;11.80;99.90
27647;DHT22;42229;51.230;6.240;2023-11-21T10:17:04;11.90;99.90
27647;DHT22;42229;51.230;6.240;2023-11-21T10:19:35;11.90;99.90
27647;DHT22;42229;51.230;6.240;2023-11-21T10:22:02;12.00;99.90
27647;DHT22;42229;51.230;6.240;2023-11-21T10:24:29;12.00;99.90
27647;DHT22;42229;51.230;6.240;2023-11-21T10:26:55;12.10;99.90
27647;DHT22;42229;51.230;6.240;2023-11-21T10:29:21;12.10;99.90
27647;DHT22;42229;51.230;6.240;2023-11-21T10:31:51;12.20;99.90
27647;DHT22;42229;51.230;6.240;2023-11-21T10:34:20;12.20;99.90
27647;DHT22;42229;51.230;6.240;2023-11-21T10:36:47;12.20;99.90
27647;DHT22;42229;51.230;6.240;2023-11-21T10:39:17;12.20;99.90
27647;DHT22;42229;51.230;6.240;2023-11-21T10:41:45;12.20;99.90
27647;DHT22;42229;51.230;6.240;2023-11-21T10:44:15;12.20;99.90
27647;DHT22;42229;51.230;6.240;2023-11-21T10:46:55;12.20;99.90
27647;DHT22;42229;51.230;6.240;2023-11-21T10:49:26;12.30;99.90
27647;DHT22;42229;51.230;6.240;2023-11-21T10:51:53;12.30;99.90
27647;DHT22;42229;51.230;6.240;2023-11-21T10:54:20;12.30;99.90
27647;DHT22;42229;51.230;6.240;2023-11-21T10:56:48;12.30;99.90
27647;DHT22;42229;51.230;6.240;2023-11-21T10:59:17;12.40;99.90
27647;DHT22;42229;51.230;6.240;2023-11-21T11:01:46;12.40;99.90
27647;DHT22;42229;51.230;6.240;2023-11-21T11:04:18;12.50;99.90
27647;DHT22;42229;51.230;6.240;2023-11-21T11:06:53;12.50;99.90
27647;DHT22;42229;51.230;6.240;2023-11-21T11:09:20;12.50;99.90
27647;DHT22;42229;51.230;6.240;2023-11-21T11:11:46;12.60;99.90
27647;DHT22;42229;51.230;6.240;2023-11-21T11:14:13;12.60;99.90
27647;DHT22;42229;51.230;6.240;2023-11-21T11:16:40;12.60;99.90
27647;DHT22;42229;51.230;6.240;2023-11-21T11:19:07;12.60;99.90
27647;DHT22;42229;51.230;6.240;2023-11-21T11:24:42;12.70;99.90
27647;DHT22;42229;51.230;6.240;2023-11-21T11:36:18;12.80;99.90
27647;DHT22;42229;51.230;6.240;2023-11-21T11:38:49;12.90;99.90
27647;DHT22;42229;51.230;6.240;2023-11-21T11:41:25;12.90;99.90
27647;DHT22;42229;51.230;6.240;2023-11-21T11:43:53;13.00;99.90
27647;DHT22;42229;51.230;6.240;2023-11-21T11:46:20;13.00;99.90
27647;DHT22;42229;51.230;6.240;2023-11-21T11:48:50;13.10;99.90
27647;DHT22;42229;51.230;6.240;2023-11-21T11:51:29;13.20;99.90
27647;DHT22;42229;51.230;6.240;2023-11-21T11:53:57;13.20;99.90
27647;DHT22;42229;51.230;6.240;2023-11-21T11:56:34;13.20;99.90
27647;DHT22;42229;51.230;6.240;2023-11-21T11:59:02;13.30;99.90
27647;DHT22;42229;51.230;6.240;2023-11-21T12:01:29;13.40;99.90
27647;DHT22;42229;51.230;6.240;2023-11-21T12:06:43;13.60;99.90
27647;DHT22;42229;51.230;6.240;2023-11-21T12:09:28;13.60;99.90
27647;DHT22;42229;51.230;6.240;2023-11-21T12:11:55;13.60;99.90
27647;DHT22;42229;51.230;6.240;2023-11-21T12:14:24;13.70;99.90
27647;DHT22;42229;51.230;6.240;2023-11-21T12:16:51;13.70;99.90
27647;DHT22;42229;51.230;6.240;2023-11-21T12:19:17;13.70;99.90
27647;DHT22;42229;51.230;6.240;2023-11-21T12:21:44;13.70;99.90
27647;DHT22;42229;51.230;6.240;2023-11-21T12:24:10;13.60;99.90
27647;DHT22;42229;51.230;6.240;2023-11-21T12:26:39;13.60;99.90
27647;DHT22;42229;51.230;6.240;2023-11-21T12:29:06;13.60;99.90
27647;DHT22;42229;51.230;6.240;2023-11-21T12:31:33;13.60;99.90
27647;DHT22;42229;51.230;6.240;2023-11-21T12:34:03;13.50;99.90
27647;DHT22;42229;51.230;6.240;2023-11-21T12:36:30;13.50;99.90
27647;DHT22;42229;51.230;6.240;2023-11-21T12:38:56;13.60;99.90
27647;DHT22;42229;51.230;6.240;2023-11-21T12:41:22;13.50;99.90
27647;DHT22;42229;51.230;6.240;2023-11-21T12:43:49;13.50;99.90
27647;DHT22;42229;51.230;6.240;2023-11-21T12:46:15;13.50;99.90
27647;DHT22;42229;51.230;6.240;2023-11-21T12:48:44;13.40;99.90
27647;DHT22;42229;51.230;6.240;2023-11-21T12:51:11;13.40;99.90
27647;DHT22;42229;51.230;6.240;2023-11-21T12:53:40;13.40;99.90
27647;DHT22;42229;51.230;6.240;2023-11-21T12:56:10;13.40;99.90
27647;DHT22;42229;51.230;6.240;2023-11-21T12:58:37;13.40;99.90
27647;DHT22;42229;51.230;6.240;2023-11-21T13:01:05;13.40;99.90
27647;DHT22;42229;51.230;6.240;2023-11-21T13:03:37;13.40;99.90
27647;DHT22;42229;51.230;6.240;2023-11-21T13:06:04;13.40;99.90
27647;DHT22;42229;51.230;6.240;2023-11-21T13:08:31;13.30;99.90
27647;DHT22;42229;51.230;6.240;2023-11-21T13:10:59;13.20;99.90
27647;DHT22;42229;51.230;6.240;2023-11-21T13:13:25;13.20;99.90
27647;DHT22;42229;51.230;6.240;2023-11-21T13:15:54;13.10;99.90
27647;DHT22;42229;51.230;6.240;2023-11-21T13:18:26;13.10;99.90
27647;DHT22;42229;51.230;6.240;2023-11-21T13:20:57;13.00;99.90
27647;DHT22;42229;51.230;6.240;2023-11-21T13:23:24;13.00;99.90
27647;DHT22;42229;51.230;6.240;2023-11-21T13:25:52;13.00;99.90
27647;DHT22;42229;51.230;6.240;2023-11-21T13:28:19;12.90;99.90
27647;DHT22;42229;51.230;6.240;2023-11-21T13:30:47;12.90;99.90
27647;DHT22;42229;51.230;6.240;2023-11-21T13:33:14;12.90;99.90
27647;DHT22;42229;51.230;6.240;2023-11-21T13:35:47;12.90;99.90
27647;DHT22;42229;51.230;6.240;2023-11-21T13:38:16;12.90;99.90
27647;DHT22;42229;51.230;6.240;2023-11-21T13:40:47;12.80;99.90
27647;DHT22;42229;51.230;6.240;2023-11-21T13:43:16;12.80;99.90
27647;DHT22;42229;51.230;6.240;2023-11-21T13:45:44;12.80;99.90
27647;DHT22;42229;51.230;6.240;2023-11-21T13:48:12;12.80;99.90
27647;DHT22;42229;51.230;6.240;2023-11-21T13:50:46;12.80;99.90
27647;DHT22;42229;51.230;6.240;2023-11-21T13:53:25;12.90;99.90
27647;DHT22;42229;51.230;6.240;2023-11-21T13:55:51;12.90;99.90
27647;DHT22;42229;51.230;6.240;2023-11-21T13:58:21;12.90;99.90
27647;DHT22;42229;51.230;6.240;2023-11-21T14:01:05;12.90;99.90
27647;DHT22;42229;51.230;6.240;2023-11-21T14:03:39;12.90;99.90
27647;DHT22;42229;51.230;6.240;2023-11-21T14:06:16;12.90;99.90
27647;DHT22;42229;51.230;6.240;2023-11-21T14:08:50;13.00;99.90
27647;DHT22;42229;51.230;6.240;2023-11-21T14:11:16;12.90;99.90
27647;DHT22;42229;51.230;6.240;2023-11-21T14:13:44;12.90;99.90
27647;DHT22;42229;51.230;6.240;2023-11-21T14:16:15;12.90;99.90
27647;DHT22;42229;51.230;6.240;2023-11-21T14:18:45;12.90;99.90
27647;DHT22;42229;51.230;6.240;2023-11-21T14:21:41;12.90;99.90
27647;DHT22;42229;51.230;6.240;2023-11-21T14:24:11;12.90;99.90
27647;DHT22;42229;51.230;6.240;2023-11-21T14:26:43;12.90;99.90
27647;DHT22;42229;51.230;6.240;2023-11-21T14:29:12;12.90;99.90
27647;DHT22;42229;51.230;6.240;2023-11-21T14:31:40;12.90;99.90
27647;DHT22;42229;51.230;6.240;2023-11-21T14:34:07;12.90;99.90
27647;DHT22;42229;51.230;6.240;2023-11-21T14:36:34;12.80;99.90
27647;DHT22;42229;51.230;6.240;2023-11-21T14:39:00;12.80;99.90
27647;DHT22;42229;51.230;6.240;2023-11-21T14:41:26;12.80;99.90
27647;DHT22;42229;51.230;6.240;2023-11-21T14:43:55;12.80;99.90
27647;DHT22;42229;51.230;6.240;2023-11-21T14:46:23;12.80;99.90
27647;DHT22;42229;51.230;6.240;2023-11-21T14:48:49;12.80;99.90
27647;DHT22;42229;51.230;6.240;2023-11-21T14:51:28;12.80;99.90
27647;DHT22;42229;51.230;6.240;2023-11-21T14:53:57;12.70;99.90
27647;DHT22;42229;51.230;6.240;2023-11-21T14:56:32;12.70;99.90
27647;DHT22;42229;51.230;6.240;2023-11-21T14:59:03;12.70;99.90
27647;DHT22;42229;51.230;6.240;2023-11-21T15:01:38;12.70;99.90
27647;DHT22;42229;51.230;6.240;2023-11-21T15:04:19;12.70;99.90
27647;DHT22;42229;51.230;6.240;2023-11-21T15:07:02;12.70;99.90
27647;DHT22;42229;51.230;6.240;2023-11-21T15:09:29;12.60;99.90
27647;DHT22;42229;51.230;6.240;2023-11-21T15:11:59;12.60;99.90
27647;DHT22;42229;51.230;6.240;2023-11-21T15:17:12;12.50;99.90
27647;DHT22;42229;51.230;6.240;2023-11-21T15:19:45;12.50;99.90
27647;DHT22;42229;51.230;6.240;2023-11-21T15:22:11;12.50;99.90
27647;DHT22;42229;51.230;6.240;2023-11-21T15:24:41;12.50;99.90
27647;DHT22;42229;51.230;6.240;2023-11-21T15:27:10;12.40;99.90
27647;DHT22;42229;51.230;6.240;2023-11-21T15:29:38;12.40;99.90
27647;DHT22;42229;51.230;6.240;2023-11-21T15:32:05;12.40;99.90
27647;DHT22;42229;51.230;6.240;2023-11-21T15:34:33;12.40;99.90
27647;DHT22;42229;51.230;6.240;2023-11-21T15:37:00;12.30;99.90
27647;DHT22;42229;51.230;6.240;2023-11-21T15:39:26;12.30;99.90
27647;DHT22;42229;51.230;6.240;2023-11-21T15:41:56;12.40;99.90
27647;DHT22;42229;51.230;6.240;2023-11-21T15:44:23;12.40;99.90
27647;DHT22;42229;51.230;6.240;2023-11-21T15:46:53;12.30;99.90
27647;DHT22;42229;51.230;6.240;2023-11-21T15:49:20;12.30;99.90
27647;DHT22;42229;51.230;6.240;2023-11-21T15:51:48;12.30;99.90
27647;DHT22;42229;51.230;6.240;2023-11-21T15:54:24;12.30;99.90